Forseti — V2PV4 — position and weather

sailwx.info

Track history (hours):
 
Tides and Currents Weather Stations Pressure Air Temp Water Temp Dewpoint Dewpoint Depression Visibility Wind Speed Wind Dir Waves Ship Positions

Forseti

Last reported at 2015-Sep-01 23:31 UTC. Time now 2015-Sep-02 00:24 UTC.
Position N 53°19' E 006°55'.

Length 85 m; draft 4.6 m.

Type: Cargo ship. MMSI: 304010297.

Date/timePositionNaut miles runAvg speedWind from/ knotsBaromVisibWave heightAir tempDewpointWater temp
2015-Sep-01 23:31N 53°19' E 006°55'0 0.0
2015-Sep-01 22:31N 53°19' E 006°55'0 0.0
2015-Sep-01 21:31N 53°19' E 006°55'0 0.0
2015-Sep-01 20:31N 53°19' E 006°55'0 0.0
2015-Sep-01 19:31N 53°19' E 006°55'0 0.0
2015-Sep-01 18:31N 53°19' E 006°55'0 0.0
2015-Sep-01 17:31N 53°19' E 006°55'0 0.0
2015-Sep-01 16:31N 53°19' E 006°55'0 0.0
2015-Sep-01 15:31N 53°19' E 006°55'0 0.0
2015-Sep-01 14:31N 53°19' E 006°55'0 0.0
2015-Sep-01 13:31N 53°19' E 006°55'0 0.0
2015-Sep-01 12:31N 53°19' E 006°55'0 0.0
2015-Sep-01 11:31N 53°19' E 006°55'0 0.0
2015-Sep-01 10:31N 53°19' E 006°55'0 0.0
2015-Sep-01 09:31N 53°19' E 006°55'0 0.0
2015-Sep-01 08:31N 53°19' E 006°55'0 0.0
2015-Sep-01 07:31N 53°19' E 006°55'0 0.0
2015-Sep-01 06:28N 53°19' E 006°55'0 0.0
2015-Sep-01 05:31N 53°19' E 006°55'0 0.0
2015-Sep-01 04:31N 53°19' E 006°55'0 0.0
2015-Sep-01 03:31N 53°19' E 006°55'0 0.0
2015-Sep-01 02:31N 53°19' E 006°55'0 0.0
2015-Sep-01 01:28N 53°19' E 006°55'0 0.0
2015-Sep-01 00:31N 53°19' E 006°55'0 0.0
2015-Aug-31 23:31N 53°19' E 006°55'0 0.0
2015-Aug-31 22:31N 53°19' E 006°55'0 0.0
2015-Aug-31 21:31N 53°19' E 006°55'0 0.0
2015-Aug-31 20:28N 53°19' E 006°55'0 0.0
2015-Aug-31 19:31N 53°19' E 006°55'0 0.0
2015-Aug-31 18:31N 53°19' E 006°55'0 0.0
2015-Aug-31 17:31N 53°19' E 006°55'0 0.0
2015-Aug-31 16:28N 53°19' E 006°55'0 0.0
2015-Aug-31 15:31N 53°19' E 006°55'1 1.1
2015-Aug-31 14:33N 53°19' E 006°56'2 2.4
2015-Aug-31 13:33N 53°19' E 007°00'9 8.7
2015-Aug-31 12:34N 53°27' E 006°54'10 9.9
2015-Aug-31 11:34N 53°33' E 006°41'10 9.8
2015-Aug-31 10:33N 53°37' E 006°26'1110.7
2015-Aug-31 09:33N 53°39' E 006°08'1110.8
2015-Aug-31 08:33N 53°38' E 005°50'1111.4
2015-Aug-31 07:33N 53°34' E 005°32'1111.2
2015-Aug-31 06:34N 53°31' E 005°14'1110.7
2015-Aug-31 05:34N 53°27' E 004°57'2110.4
2015-Aug-31 03:30N 53°12' E 004°32'1010.3
2015-Aug-31 02:32N 53°03' E 004°23'9 9.7
2015-Aug-31 01:33N 52°54' E 004°17'9 8.8
2015-Aug-31 00:33N 52°47' E 004°10'8 8.5
2015-Aug-30 23:34N 52°40' E 004°00'9 8.3
2015-Aug-30 22:26N 52°34' E 003°49'9210.0
2015-Aug-30 13:13N 51°24' E 002°12'812.1
2015-Aug-30 12:34N 51°16' E 002°07'1212.0
2015-Aug-30 11:33N 51°09' E 001°52'1211.9
2015-Aug-30 10:33N 51°00' E 001°38'1110.6
2015-Aug-30 09:33N 50°52' E 001°28'65 5.8
2015-Aug-29 22:28N 50°47' W 000°14'3 0.1
2015-Aug-28 04:28N 50°50' W 000°13'0 0.0
2015-Aug-28 03:28N 50°50' W 000°13'0 0.0
2015-Aug-28 02:22N 50°50' W 000°13'0 0.0
2015-Aug-28 01:28N 50°50' W 000°13'0 0.0
2015-Aug-27 19:06N 50°50' W 000°13'1 1.1
2015-Aug-27 18:30N 50°50' W 000°14'0 0.0
2015-Aug-27 03:23N 50°50' W 000°15'0 0.0
2015-Aug-26 23:26N 50°50' W 000°15'0 0.0
2015-Aug-26 22:14N 50°50' W 000°15'0 0.0
2015-Aug-26 21:20N 50°50' W 000°15'0 0.0
2015-Aug-26 20:32N 50°50' W 000°15'0 0.0
2015-Aug-26 05:29N 50°50' W 000°15'0 0.0
2015-Aug-26 04:29N 50°50' W 000°15'0 0.0
2015-Aug-26 00:17N 50°50' W 000°15'0 0.0
2015-Aug-25 10:10N 50°50' W 000°15'0 0.0
2015-Aug-25 08:28N 50°50' W 000°15'0 0.0
2015-Aug-24 19:16N 50°50' W 000°15'0 0.0
2015-Aug-24 18:22N 50°50' W 000°15'0 0.0
2015-Aug-24 17:22N 50°50' W 000°15'0 0.5
2015-Aug-24 16:33N 50°49' W 000°15'21 4.1
2015-Aug-24 11:19N 50°34' E 000°09'810.3
2015-Aug-24 10:33N 50°36' E 000°21'1010.4
2015-Aug-24 09:33N 50°40' E 000°36'1010.1
2015-Aug-24 08:33N 50°46' E 000°49'19 9.3
2015-Aug-24 06:33N 50°57' E 001°13'9 8.6
2015-Aug-24 05:33N 51°02' E 001°23'8 8.4
2015-Aug-24 04:33N 51°08' E 001°33'9 9.1
2015-Aug-24 03:34N 51°13' E 001°45'1010.4
2015-Aug-24 02:34N 51°22' E 001°53'1110.8
2015-Aug-24 01:33N 51°31' E 002°04'152 9.4
2015-Aug-23 09:22N 53°29' E 004°42'8 9.3
2015-Aug-23 08:33N 53°32' E 004°54'1010.1
2015-Aug-23 07:33N 53°36' E 005°10'1110.8
2015-Aug-23 06:33N 53°39' E 005°27'1110.9
2015-Aug-23 05:33N 53°43' E 005°44'1110.5
2015-Aug-23 04:32N 53°46' E 006°01'1010.1
2015-Aug-23 03:33N 53°50' E 006°17'9 9.4
2015-Aug-23 02:33N 53°52' E 006°33'9 9.2
2015-Aug-23 01:33N 53°54' E 006°48'9 9.0
2015-Aug-23 00:32N 53°56' E 007°03'9 9.1
2015-Aug-22 23:33N 53°58' E 007°18'  
Track history (hours):
 
Tides and Currents Weather Stations Pressure Air Temp Water Temp Dewpoint Dewpoint Depression Visibility Wind Speed Wind Dir Waves Ship Positions

Forseti

Last reported at 2015-Sep-01 23:31 UTC. Time now 2015-Sep-02 00:24 UTC.
Position N 53°19' E 006°55'.

Length 85 m; draft 4.6 m.

Type: Cargo ship. MMSI: 304010297.

Date/timePositionNaut miles runAvg speedWind from/ knotsBaromVisibWave heightAir tempDewpointWater temp
2015-Sep-01 23:31N 53°19' E 006°55'0 0.0
2015-Sep-01 22:31N 53°19' E 006°55'0 0.0
2015-Sep-01 21:31N 53°19' E 006°55'0 0.0
2015-Sep-01 20:31N 53°19' E 006°55'0 0.0
2015-Sep-01 19:31N 53°19' E 006°55'0 0.0
2015-Sep-01 18:31N 53°19' E 006°55'0 0.0
2015-Sep-01 17:31N 53°19' E 006°55'0 0.0
2015-Sep-01 16:31N 53°19' E 006°55'0 0.0
2015-Sep-01 15:31N 53°19' E 006°55'0 0.0
2015-Sep-01 14:31N 53°19' E 006°55'0 0.0
2015-Sep-01 13:31N 53°19' E 006°55'0 0.0
2015-Sep-01 12:31N 53°19' E 006°55'0 0.0
2015-Sep-01 11:31N 53°19' E 006°55'0 0.0
2015-Sep-01 10:31N 53°19' E 006°55'0 0.0
2015-Sep-01 09:31N 53°19' E 006°55'0 0.0
2015-Sep-01 08:31N 53°19' E 006°55'0 0.0
2015-Sep-01 07:31N 53°19' E 006°55'0 0.0
2015-Sep-01 06:28N 53°19' E 006°55'0 0.0
2015-Sep-01 05:31N 53°19' E 006°55'0 0.0
2015-Sep-01 04:31N 53°19' E 006°55'0 0.0
2015-Sep-01 03:31N 53°19' E 006°55'0 0.0
2015-Sep-01 02:31N 53°19' E 006°55'0 0.0
2015-Sep-01 01:28N 53°19' E 006°55'0 0.0
2015-Sep-01 00:31N 53°19' E 006°55'0 0.0
2015-Aug-31 23:31N 53°19' E 006°55'0 0.0
2015-Aug-31 22:31N 53°19' E 006°55'0 0.0
2015-Aug-31 21:31N 53°19' E 006°55'0 0.0
2015-Aug-31 20:28N 53°19' E 006°55'0 0.0
2015-Aug-31 19:31N 53°19' E 006°55'0 0.0
2015-Aug-31 18:31N 53°19' E 006°55'0 0.0
2015-Aug-31 17:31N 53°19' E 006°55'0 0.0
2015-Aug-31 16:28N 53°19' E 006°55'0 0.0
2015-Aug-31 15:31N 53°19' E 006°55'1 1.1
2015-Aug-31 14:33N 53°19' E 006°56'2 2.4
2015-Aug-31 13:33N 53°19' E 007°00'9 8.7
2015-Aug-31 12:34N 53°27' E 006°54'10 9.9
2015-Aug-31 11:34N 53°33' E 006°41'10 9.8
2015-Aug-31 10:33N 53°37' E 006°26'1110.7
2015-Aug-31 09:33N 53°39' E 006°08'1110.8
2015-Aug-31 08:33N 53°38' E 005°50'1111.4
2015-Aug-31 07:33N 53°34' E 005°32'1111.2
2015-Aug-31 06:34N 53°31' E 005°14'1110.7
2015-Aug-31 05:34N 53°27' E 004°57'2110.4
2015-Aug-31 03:30N 53°12' E 004°32'1010.3
2015-Aug-31 02:32N 53°03' E 004°23'9 9.7
2015-Aug-31 01:33N 52°54' E 004°17'9 8.8
2015-Aug-31 00:33N 52°47' E 004°10'8 8.5
2015-Aug-30 23:34N 52°40' E 004°00'9 8.3
2015-Aug-30 22:26N 52°34' E 003°49'9210.0
2015-Aug-30 13:13N 51°24' E 002°12'812.1
2015-Aug-30 12:34N 51°16' E 002°07'1212.0
2015-Aug-30 11:33N 51°09' E 001°52'1211.9
2015-Aug-30 10:33N 51°00' E 001°38'1110.6
2015-Aug-30 09:33N 50°52' E 001°28'65 5.8
2015-Aug-29 22:28N 50°47' W 000°14'3 0.1
2015-Aug-28 04:28N 50°50' W 000°13'0 0.0
2015-Aug-28 03:28N 50°50' W 000°13'0 0.0
2015-Aug-28 02:22N 50°50' W 000°13'0 0.0
2015-Aug-28 01:28N 50°50' W 000°13'0 0.0
2015-Aug-27 19:06N 50°50' W 000°13'1 1.1
2015-Aug-27 18:30N 50°50' W 000°14'0 0.0
2015-Aug-27 03:23N 50°50' W 000°15'0 0.0
2015-Aug-26 23:26N 50°50' W 000°15'0 0.0
2015-Aug-26 22:14N 50°50' W 000°15'0 0.0
2015-Aug-26 21:20N 50°50' W 000°15'0 0.0
2015-Aug-26 20:32N 50°50' W 000°15'0 0.0
2015-Aug-26 05:29N 50°50' W 000°15'0 0.0
2015-Aug-26 04:29N 50°50' W 000°15'0 0.0
2015-Aug-26 00:17N 50°50' W 000°15'0 0.0
2015-Aug-25 10:10N 50°50' W 000°15'0 0.0
2015-Aug-25 08:28N 50°50' W 000°15'0 0.0
2015-Aug-24 19:16N 50°50' W 000°15'0 0.0
2015-Aug-24 18:22N 50°50' W 000°15'0 0.0
2015-Aug-24 17:22N 50°50' W 000°15'0 0.5
2015-Aug-24 16:33N 50°49' W 000°15'21 4.1
2015-Aug-24 11:19N 50°34' E 000°09'810.3
2015-Aug-24 10:33N 50°36' E 000°21'1010.4
2015-Aug-24 09:33N 50°40' E 000°36'1010.1
2015-Aug-24 08:33N 50°46' E 000°49'19 9.3
2015-Aug-24 06:33N 50°57' E 001°13'9 8.6
2015-Aug-24 05:33N 51°02' E 001°23'8 8.4
2015-Aug-24 04:33N 51°08' E 001°33'9 9.1
2015-Aug-24 03:34N 51°13' E 001°45'1010.4
2015-Aug-24 02:34N 51°22' E 001°53'1110.8
2015-Aug-24 01:33N 51°31' E 002°04'152 9.4
2015-Aug-23 09:22N 53°29' E 004°42'8 9.3
2015-Aug-23 08:33N 53°32' E 004°54'1010.1
2015-Aug-23 07:33N 53°36' E 005°10'1110.8
2015-Aug-23 06:33N 53°39' E 005°27'1110.9
2015-Aug-23 05:33N 53°43' E 005°44'1110.5
2015-Aug-23 04:32N 53°46' E 006°01'1010.1
2015-Aug-23 03:33N 53°50' E 006°17'9 9.4
2015-Aug-23 02:33N 53°52' E 006°33'9 9.2
2015-Aug-23 01:33N 53°54' E 006°48'9 9.0
2015-Aug-23 00:32N 53°56' E 007°03'9 9.1
2015-Aug-22 23:33N 53°58' E 007°18'  

Dump ship's entire track history